Time;durP1;ratioP1;P1;durP2;ratioP2;P2;SDS_P1;SDS_P2;PMS_P1;PMS_P2;Temp;Humidity;BMP_temperature;BMP_pressure;BME280_temperature;BME280_humidity;BME280_pressure;Samples;Min_cycle;Max_cycle;Signal;HPM_P1;HPM_P2
2022/05/10 00:01:29;;;;;;;17.63;10.70;;;12.10;99.90;;;;;;5031415;28;20612;-53
2022/05/10 00:03:57;;;;;;;15.60;8.98;;;12.00;99.90;;;;;;5022756;28;20377;-53
2022/05/10 00:06:24;;;;;;;17.50;10.13;;;12.00;99.90;;;;;;5034208;28;20045;-50
2022/05/10 00:08:49;;;;;;;19.50;10.77;;;12.00;99.90;;;;;;5012912;28;20065;-56
2022/05/10 00:11:15;;;;;;;16.33;10.52;;;12.00;99.90;;;;;;5025283;28;20376;-51
2022/05/10 00:13:41;;;;;;;16.58;10.60;;;12.10;99.90;;;;;;5033755;28;20049;-56
2022/05/10 00:16:17;;;;;;;15.27;10.32;;;12.10;99.90;;;;;;4995389;28;20145;-54
2022/05/10 00:18:43;;;;;;;17.00;11.48;;;12.20;99.90;;;;;;5031220;28;20045;-53
2022/05/10 00:21:11;;;;;;;17.40;11.40;;;12.20;99.90;;;;;;5031691;28;20037;-52
2022/05/10 00:23:37;;;;;;;16.27;11.07;;;12.30;99.90;;;;;;5030791;28;20509;-49
2022/05/10 00:26:03;;;;;;;20.25;11.38;;;12.30;99.90;;;;;;5037972;28;20099;-48
2022/05/10 00:28:29;;;;;;;15.95;12.07;;;12.30;99.90;;;;;;5037921;28;20045;-54
2022/05/10 00:30:55;;;;;;;21.17;12.23;;;12.30;99.90;;;;;;5017991;28;20060;-49
2022/05/10 00:33:27;;;;;;;18.42;11.95;;;12.30;99.90;;;;;;5037036;28;20044;-52
2022/05/10 00:35:55;;;;;;;19.30;12.40;;;12.30;99.90;;;;;;5021102;28;20230;-54
2022/05/10 00:38:24;;;;;;;18.65;14.23;;;12.40;99.90;;;;;;5016123;28;20065;-53
2022/05/10 00:40:50;;;;;;;17.00;13.98;;;12.40;99.90;;;;;;5020537;28;20061;-52
2022/05/10 00:43:29;;;;;;;19.20;13.23;;;12.40;99.90;;;;;;5037353;28;20114;-55
2022/05/10 00:45:55;;;;;;;17.55;12.80;;;12.50;99.90;;;;;;5030866;28;20052;-51
2022/05/10 00:48:37;;;;;;;18.08;13.43;;;12.40;99.90;;;;;;5032906;28;20565;-51
2022/05/10 00:51:27;;;;;;;24.83;14.70;;;12.50;99.90;;;;;;5029903;28;20092;-55
2022/05/10 00:53:56;;;;;;;23.88;14.70;;;12.50;99.90;;;;;;5022425;28;20148;-51
2022/05/10 00:56:31;;;;;;;18.15;13.25;;;12.40;99.90;;;;;;5023070;28;20768;-51
2022/05/10 00:59:11;;;;;;;19.85;13.95;;;12.40;99.90;;;;;;5009428;28;20583;-52
2022/05/10 01:01:38;;;;;;;20.38;13.48;;;12.40;99.90;;;;;;5030286;28;20052;-51
2022/05/10 01:04:34;;;;;;;21.05;14.95;;;12.40;99.90;;;;;;5030809;28;20051;-51
2022/05/10 01:07:06;;;;;;;18.38;13.25;;;12.40;99.90;;;;;;5026512;28;20495;-52
2022/05/10 01:09:54;;;;;;;19.83;13.75;;;12.30;99.90;;;;;;5026422;28;20477;-54
2022/05/10 01:12:31;;;;;;;21.42;14.13;;;12.30;99.90;;;;;;5018363;28;20056;-53
2022/05/10 01:15:04;;;;;;;18.33;13.98;;;12.30;99.90;;;;;;5032323;28;20045;-48
2022/05/10 01:17:31;;;;;;;21.33;14.52;;;12.30;99.90;;;;;;5025948;28;20046;-50
2022/05/10 01:19:57;;;;;;;22.02;13.35;;;12.30;99.90;;;;;;5026884;28;20489;-53
2022/05/10 01:23:01;;;;;;;18.27;13.23;;;12.20;99.90;;;;;;5016931;28;20041;-51
2022/05/10 01:25:50;;;;;;;16.55;12.90;;;12.30;99.90;;;;;;5013650;28;20065;-54
2022/05/10 01:28:18;;;;;;;20.67;13.50;;;12.20;99.90;;;;;;5037051;28;20056;-53
2022/05/10 01:30:44;;;;;;;15.70;13.40;;;12.30;99.90;;;;;;5027966;28;20379;-52
2022/05/10 01:33:32;;;;;;;17.73;12.40;;;12.20;99.90;;;;;;5018906;28;20098;-53
2022/05/10 01:36:29;;;;;;;18.98;12.38;;;12.20;99.90;;;;;;5002783;28;20053;-56
2022/05/10 01:39:17;;;;;;;17.10;12.52;;;12.30;99.90;;;;;;5039326;28;20140;-51
2022/05/10 01:42:05;;;;;;;17.52;13.15;;;12.30;99.90;;;;;;5034012;28;20092;-51
2022/05/10 01:44:56;;;;;;;20.02;13.43;;;12.20;99.90;;;;;;5029156;28;20048;-53
2022/05/10 01:47:30;;;;;;;18.35;13.13;;;12.30;99.90;;;;;;4914575;29;20449;-53
2022/05/10 01:50:43;;;;;;;21.65;12.88;;;12.20;99.90;;;;;;4934264;28;20059;-50
2022/05/10 01:53:16;;;;;;;16.73;12.63;;;12.30;99.90;;;;;;4911180;28;20141;-55
2022/05/10 01:55:44;;;;;;;;;;;12.20;99.90;;;;;;4932524;28;20505;-53
2022/05/10 01:58:14;;;;;;;21.85;12.95;;;12.20;99.90;;;;;;4919512;29;19927;-54
2022/05/10 02:00:48;;;;;;;19.88;14.38;;;12.20;99.90;;;;;;4937973;28;20117;-50
2022/05/10 02:03:19;;;;;;;17.40;12.77;;;12.10;99.90;;;;;;4936925;28;20055;-53
2022/05/10 02:05:44;;;;;;;21.17;13.00;;;12.10;99.90;;;;;;4929477;28;20103;-53
2022/05/10 02:08:36;;;;;;;21.67;13.10;;;12.20;99.90;;;;;;4930839;28;20048;-54
2022/05/10 02:11:08;;;;;;;21.00;13.10;;;12.20;99.90;;;;;;4913783;29;20066;-52
2022/05/10 02:13:54;;;;;;;17.80;11.95;;;12.20;99.90;;;;;;4937620;28;20065;-50
2022/05/10 02:16:40;;;;;;;19.05;13.75;;;12.20;99.90;;;;;;4917973;29;20208;-51
2022/05/10 02:19:23;;;;;;;17.15;12.63;;;12.20;99.90;;;;;;4916751;29;20059;-53
2022/05/10 02:21:55;;;;;;;20.13;12.57;;;12.30;99.90;;;;;;4933692;28;20048;-54
2022/05/10 02:24:31;;;;;;;20.00;13.35;;;12.30;99.90;;;;;;4983256;28;20468;-48
2022/05/10 02:27:23;;;;;;;17.63;12.77;;;12.30;99.90;;;;;;5039209;28;20088;-50
2022/05/10 02:30:02;;;;;;;22.65;12.93;;;12.30;99.90;;;;;;5027132;28;20147;-49
2022/05/10 02:35:54;;;;;;;18.20;13.50;;;12.40;99.90;;;;;;5037918;28;20045;-50
2022/05/10 02:38:26;;;;;;;23.27;12.80;;;12.40;99.90;;;;;;5027707;28;20051;-55
2022/05/10 02:40:55;;;;;;;18.52;12.80;;;12.50;99.90;;;;;;5040609;28;20061;-51
2022/05/10 02:43:55;;;;;;;16.42;13.80;;;12.50;99.90;;;;;;5035009;28;20049;-52
2022/05/10 02:46:21;;;;;;;18.60;12.38;;;12.50;99.90;;;;;;5030078;28;20187;-50
2022/05/10 02:48:48;;;;;;;18.45;12.27;;;12.60;99.90;;;;;;5033299;28;20052;-50
2022/05/10 02:51:15;;;;;;;23.42;13.05;;;12.60;99.90;;;;;;5027718;28;20600;-55
2022/05/10 02:53:41;;;;;;;20.33;12.73;;;12.70;99.90;;;;;;5023917;28;20048;-55
2022/05/10 02:56:10;;;;;;;17.48;11.93;;;12.60;99.90;;;;;;5023095;28;20558;-53
2022/05/10 02:58:41;;;;;;;23.30;12.10;;;12.60;99.90;;;;;;5041637;28;20546;-54
2022/05/10 03:01:28;;;;;;;18.58;11.68;;;12.60;99.90;;;;;;5000969;28;20049;-50
2022/05/10 03:03:54;;;;;;;17.65;12.05;;;12.70;99.90;;;;;;5037230;28;20048;-53
2022/05/10 03:06:22;;;;;;;17.80;12.38;;;12.70;99.90;;;;;;5032545;28;20045;-52
2022/05/10 03:08:50;;;;;;;16.52;12.75;;;12.70;99.90;;;;;;5032706;28;20087;-52
2022/05/10 03:11:17;;;;;;;19.38;12.32;;;12.70;99.90;;;;;;5028104;28;20877;-53
2022/05/10 03:13:44;;;;;;;19.25;12.77;;;12.80;99.90;;;;;;5030658;28;20393;-54
2022/05/10 03:16:10;;;;;;;16.98;13.80;;;12.70;99.90;;;;;;5027977;28;20115;-51
2022/05/10 03:18:36;;;;;;;19.17;13.43;;;12.70;99.90;;;;;;5030922;28;20785;-56
2022/05/10 03:21:03;;;;;;;19.05;11.88;;;12.70;99.90;;;;;;5019794;28;20099;-53
2022/05/10 03:23:29;;;;;;;19.05;13.30;;;12.70;99.90;;;;;;5040823;28;20404;-52
2022/05/10 03:25:55;;;;;;;16.33;12.68;;;12.70;99.90;;;;;;5040566;28;20451;-50
2022/05/10 03:28:22;;;;;;;14.73;12.98;;;12.70;99.90;;;;;;5028580;28;20049;-52
2022/05/10 03:30:48;;;;;;;18.92;12.95;;;12.70;99.90;;;;;;5038387;28;20045;-50
2022/05/10 03:33:14;;;;;;;19.73;13.82;;;12.70;99.90;;;;;;5037711;28;20057;-55
2022/05/10 03:35:40;;;;;;;16.83;12.32;;;12.80;99.90;;;;;;5020597;28;20059;-54
2022/05/10 03:38:06;;;;;;;18.88;12.50;;;12.80;99.90;;;;;;5028964;28;20049;-56
2022/05/10 03:40:32;;;;;;;19.23;13.32;;;12.80;99.90;;;;;;5013149;28;20139;-53
2022/05/10 03:42:58;;;;;;;21.73;12.50;;;12.80;99.90;;;;;;5035817;28;20389;-52
2022/05/10 03:45:24;;;;;;;17.42;13.55;;;12.80;99.90;;;;;;5034733;28;20056;-56
2022/05/10 03:47:51;;;;;;;19.95;13.50;;;12.80;99.90;;;;;;5028448;28;20049;-50
2022/05/10 03:50:20;;;;;;;19.23;13.32;;;12.80;99.90;;;;;;5007559;28;20060;-51
2022/05/10 03:52:46;;;;;;;15.02;13.07;;;12.80;99.90;;;;;;5026621;28;20152;-51
2022/05/10 03:55:16;;;;;;;17.02;12.40;;;12.90;99.90;;;;;;5024754;28;20424;-54
2022/05/10 03:57:42;;;;;;;15.32;12.10;;;12.80;99.90;;;;;;5012212;28;20052;-54
2022/05/10 04:00:11;;;;;;;15.52;12.02;;;12.90;99.90;;;;;;5006142;28;20045;-55
2022/05/10 04:02:38;;;;;;;18.48;12.68;;;12.90;99.90;;;;;;5028478;28;20037;-53
2022/05/10 04:05:05;;;;;;;18.75;13.80;;;12.90;99.90;;;;;;5035706;28;20131;-49
2022/05/10 04:07:31;;;;;;;17.27;13.88;;;13.00;99.90;;;;;;5030936;28;20128;-55
2022/05/10 04:09:57;;;;;;;16.83;12.88;;;13.00;99.90;;;;;;5014541;28;20518;-50
2022/05/10 04:12:23;;;;;;;19.00;13.38;;;13.00;99.90;;;;;;5015661;28;20420;-53
2022/05/10 04:14:49;;;;;;;20.77;12.98;;;13.00;99.90;;;;;;5038077;28;20049;-51
2022/05/10 04:17:15;;;;;;;21.08;13.63;;;13.10;99.90;;;;;;5029933;28;20057;-54
2022/05/10 04:19:40;;;;;;;20.55;14.68;;;13.10;99.90;;;;;;5025874;28;20049;-53
2022/05/10 04:22:06;;;;;;;19.38;15.48;;;13.10;99.90;;;;;;5031413;28;20573;-54
2022/05/10 04:24:34;;;;;;;17.00;12.95;;;13.10;99.90;;;;;;5028603;28;20054;-55
2022/05/10 04:27:00;;;;;;;17.42;13.27;;;13.20;99.90;;;;;;5028639;28;20048;-54
2022/05/10 04:29:27;;;;;;;20.20;13.38;;;13.20;99.90;;;;;;5041045;28;20426;-57
2022/05/10 04:31:53;;;;;;;16.20;13.35;;;13.20;99.90;;;;;;5026011;28;20049;-59
2022/05/10 04:34:19;;;;;;;23.08;14.23;;;13.20;99.90;;;;;;5031327;28;20045;-55
2022/05/10 04:36:45;;;;;;;18.95;13.77;;;13.30;99.90;;;;;;5016699;28;20071;-52
2022/05/10 04:39:11;;;;;;;20.05;14.30;;;13.30;99.90;;;;;;5009893;28;20077;-57
2022/05/10 04:41:42;;;;;;;18.88;13.15;;;13.30;99.90;;;;;;5007043;28;20528;-55
2022/05/10 04:44:10;;;;;;;18.17;13.85;;;13.40;99.90;;;;;;5003992;28;20562;-52
2022/05/10 04:46:38;;;;;;;16.92;12.93;;;13.40;99.90;;;;;;5012691;28;20054;-50
2022/05/10 04:49:10;;;;;;;19.45;13.57;;;13.50;99.90;;;;;;5014251;28;20388;-54
2022/05/10 04:51:36;;;;;;;18.27;14.02;;;13.50;99.90;;;;;;5018442;28;20058;-52
2022/05/10 04:54:02;;;;;;;16.52;13.10;;;13.50;99.90;;;;;;5009083;28;20050;-56
2022/05/10 04:56:28;;;;;;;19.20;13.27;;;13.60;99.90;;;;;;5015446;28;20053;-54
2022/05/10 04:58:57;;;;;;;17.92;14.98;;;13.60;99.90;;;;;;5010575;28;20046;-56
2022/05/10 05:01:29;;;;;;;20.42;14.38;;;13.60;99.90;;;;;;5018750;28;20432;-53
2022/05/10 05:03:56;;;;;;;16.63;13.63;;;13.70;99.90;;;;;;5019294;28;20132;-50
2022/05/10 05:06:26;;;;;;;16.65;14.20;;;13.70;99.90;;;;;;5000731;28;20128;-55
2022/05/10 05:08:52;;;;;;;20.08;14.43;;;13.80;99.90;;;;;;5013696;28;20060;-55
2022/05/10 05:11:18;;;;;;;17.75;14.52;;;13.80;99.90;;;;;;5012170;28;20097;-53
2022/05/10 05:13:44;;;;;;;18.40;13.48;;;13.90;99.90;;;;;;5018736;28;20049;-54
2022/05/10 05:16:10;;;;;;;19.35;14.35;;;13.90;99.90;;;;;;5012933;28;20052;-54
2022/05/10 05:18:36;;;;;;;21.30;14.40;;;13.90;99.90;;;;;;5016713;28;20046;-47
2022/05/10 05:21:02;;;;;;;21.58;14.73;;;14.00;99.90;;;;;;5020195;28;20427;-54
2022/05/10 05:23:28;;;;;;;21.92;14.45;;;14.00;99.90;;;;;;4996309;28;20053;-50
2022/05/10 05:25:55;;;;;;;17.92;13.65;;;14.10;99.90;;;;;;5015373;28;20112;-50
2022/05/10 05:28:21;;;;;;;19.00;14.07;;;14.20;99.90;;;;;;5010973;28;20056;-54
2022/05/10 05:30:48;;;;;;;21.40;14.25;;;14.20;99.90;;;;;;5020718;28;20057;-51
2022/05/10 05:33:14;;;;;;;23.38;15.63;;;14.30;99.90;;;;;;5019096;28;20371;-50
2022/05/10 05:35:40;;;;;;;16.90;13.55;;;14.30;99.90;;;;;;5022127;28;20893;-45
2022/05/10 05:38:06;;;;;;;15.75;13.27;;;14.50;99.90;;;;;;5020984;28;20049;-56
2022/05/10 05:40:34;;;;;;;25.25;13.63;;;14.50;99.90;;;;;;5020630;28;20220;-53
2022/05/10 05:42:59;;;;;;;16.65;13.48;;;14.60;99.90;;;;;;5009837;28;20120;-54
2022/05/10 05:45:25;;;;;;;18.55;13.50;;;14.70;99.90;;;;;;5016859;28;20129;-55
2022/05/10 05:47:51;;;;;;;18.95;13.40;;;14.80;99.90;;;;;;5015167;28;20377;-51
2022/05/10 05:50:23;;;;;;;16.25;13.60;;;14.80;99.90;;;;;;5018606;28;20371;-48
2022/05/10 05:52:49;;;;;;;17.05;13.00;;;14.90;99.90;;;;;;5020273;28;20049;-55
2022/05/10 05:55:18;;;;;;;21.77;13.45;;;15.00;99.90;;;;;;5022638;28;20049;-53
2022/05/10 05:57:44;;;;;;;19.08;13.68;;;15.10;99.90;;;;;;5008734;28;20461;-51
2022/05/10 06:00:14;;;;;;;21.13;13.10;;;15.30;99.90;;;;;;5019584;28;20060;-51
2022/05/10 06:02:40;;;;;;;16.38;13.43;;;15.40;99.90;;;;;;5018700;28;20045;-55
2022/05/10 06:05:06;;;;;;;16.73;12.45;;;15.50;99.90;;;;;;5036347;28;20049;-55
2022/05/10 06:07:32;;;;;;;15.70;13.90;;;15.70;99.90;;;;;;5007378;28;20580;-54
2022/05/10 06:09:58;;;;;;;18.88;13.52;;;15.80;99.90;;;;;;5020021;28;20076;-54
2022/05/10 06:12:24;;;;;;;20.90;13.52;;;16.00;99.90;;;;;;5016901;28;20046;-51
2022/05/10 06:14:51;;;;;;;24.67;12.93;;;16.20;99.90;;;;;;5011440;28;20101;-54
2022/05/10 06:17:17;;;;;;;15.77;12.55;;;16.40;99.90;;;;;;5007542;28;20046;-49
2022/05/10 06:19:45;;;;;;;17.25;12.10;;;16.60;99.90;;;;;;5020500;28;20412;-52
2022/05/10 06:22:12;;;;;;;17.30;11.90;;;16.70;99.90;;;;;;5016626;28;20626;-49
2022/05/10 06:24:38;;;;;;;14.88;11.75;;;16.80;99.90;;;;;;5021118;28;20072;-52
2022/05/10 06:27:05;;;;;;;16.83;11.70;;;16.80;99.90;;;;;;5007785;28;20053;-52
2022/05/10 06:29:33;;;;;;;18.50;11.68;;;16.90;99.90;;;;;;5020802;28;20140;-50
2022/05/10 06:32:03;;;;;;;20.90;12.00;;;16.90;99.90;;;;;;5007129;28;20139;-52
2022/05/10 06:34:29;;;;;;;12.60;11.30;;;16.90;99.90;;;;;;5012130;28;20054;-56
2022/05/10 06:36:55;;;;;;;16.83;12.52;;;17.10;99.90;;;;;;5018058;28;20053;-53
2022/05/10 06:39:20;;;;;;;14.93;11.15;;;17.20;99.90;;;;;;5022891;28;20551;-44
2022/05/10 06:41:46;;;;;;;15.82;11.23;;;17.40;99.90;;;;;;5033499;28;20132;-50
2022/05/10 06:44:12;;;;;;;16.85;11.85;;;17.50;99.90;;;;;;5032921;28;20125;-52
2022/05/10 06:46:38;;;;;;;13.10;11.13;;;17.60;99.90;;;;;;5033921;28;20084;-53
2022/05/10 06:49:04;;;;;;;16.20;10.43;;;17.70;99.90;;;;;;5032698;28;20454;-49
2022/05/10 06:51:31;;;;;;;11.75;10.55;;;17.80;99.90;;;;;;5031002;28;20487;-53
2022/05/10 06:53:57;;;;;;;16.05;11.05;;;18.10;99.90;;;;;;5035379;28;20045;-53
2022/05/10 06:56:23;;;;;;;13.35;10.15;;;18.50;99.90;;;;;;5032657;28;20048;-58
2022/05/10 06:58:49;;;;;;;12.32;9.90;;;18.70;99.90;;;;;;5033625;28;20111;-52
2022/05/10 07:01:15;;;;;;;18.02;10.40;;;18.80;99.90;;;;;;5032084;28;20812;-55
2022/05/10 07:03:44;;;;;;;15.10;9.07;;;18.90;99.90;;;;;;5037167;28;20054;-54
2022/05/10 07:06:12;;;;;;;12.65;9.23;;;18.90;99.90;;;;;;5033903;28;20508;-53
2022/05/10 07:08:38;;;;;;;11.93;8.57;;;18.80;99.90;;;;;;5032859;28;20160;-52
2022/05/10 07:11:04;;;;;;;13.27;8.75;;;18.90;99.90;;;;;;5034309;28;20075;-55
2022/05/10 07:13:31;;;;;;;12.25;9.23;;;18.90;99.90;;;;;;5017107;28;20060;-52
2022/05/10 07:15:57;;;;;;;16.20;8.90;;;18.90;99.90;;;;;;5037831;28;20072;-56
2022/05/10 07:18:23;;;;;;;17.05;10.73;;;18.80;99.90;;;;;;5038589;28;20682;-56
2022/05/10 07:20:50;;;;;;;16.20;8.75;;;18.80;99.90;;;;;;5030933;28;20578;-53
2022/05/10 07:23:29;;;;;;;15.00;8.38;;;18.70;99.90;;;;;;5032909;28;20045;-51
2022/05/10 07:25:55;;;;;;;11.60;7.50;;;18.70;99.90;;;;;;5034692;28;20511;-56
2022/05/10 07:28:22;;;;;;;11.98;7.90;;;18.60;99.90;;;;;;5035534;28;20036;-51
2022/05/10 07:30:48;;;;;;;12.32;7.85;;;18.70;99.90;;;;;;5036020;28;20128;-53
2022/05/10 07:33:18;;;;;;;10.45;7.15;;;18.60;99.90;;;;;;5041458;28;20078;-54
2022/05/10 07:38:28;;;;;;;12.63;7.28;;;18.70;99.90;;;;;;5025294;28;20127;-50
2022/05/10 07:40:54;;;;;;;18.83;7.38;;;18.70;99.90;;;;;;5032898;28;20500;-54
2022/05/10 07:43:21;;;;;;;10.48;6.90;;;18.80;99.90;;;;;;5039926;28;20461;-54
2022/05/10 07:45:48;;;;;;;10.75;7.47;;;18.90;99.90;;;;;;5032355;28;20124;-53
2022/05/10 07:48:14;;;;;;;12.57;7.10;;;19.00;99.90;;;;;;5017784;28;20359;-53
2022/05/10 07:50:40;;;;;;;14.00;7.63;;;19.10;99.90;;;;;;5025295;28;20049;-52
2022/05/10 07:53:10;;;;;;;11.43;6.82;;;19.10;99.90;;;;;;5028182;28;20462;-53
2022/05/10 07:55:37;;;;;;;10.55;6.97;;;19.10;99.90;;;;;;5027115;28;20053;-54
2022/05/10 07:58:06;;;;;;;11.63;7.63;;;19.10;99.90;;;;;;5033208;28;20045;-53
2022/05/10 08:00:36;;;;;;;13.48;6.68;;;19.10;99.90;;;;;;5026990;28;20353;-48
2022/05/10 08:03:09;;;;;;;13.20;7.57;;;19.10;99.90;;;;;;5031364;28;20553;-54
2022/05/10 08:05:42;;;;;;;10.50;6.65;;;19.10;99.90;;;;;;5117443;27;1281398;-50
2022/05/10 08:08:11;;;;;;;10.80;6.70;;;19.20;99.90;;;;;;5158101;27;20050;-49
2022/05/10 08:10:39;;;;;;;10.15;6.93;;;19.40;99.90;;;;;;5143754;27;20051;-55
2022/05/10 08:13:09;;;;;;;14.75;6.20;;;19.50;99.90;;;;;;5127495;27;20492;-55
2022/05/10 08:15:35;;;;;;;11.63;7.07;;;19.70;99.90;;;;;;5153704;27;20187;-49
2022/05/10 08:18:01;;;;;;;12.68;6.60;;;19.80;99.90;;;;;;5147035;27;20042;-54
2022/05/10 08:20:26;;;;;;;12.52;6.80;;;19.90;99.90;;;;;;5152488;27;20109;-51
2022/05/10 08:22:52;;;;;;;10.07;6.30;;;20.00;99.90;;;;;;5138919;27;20184;-54
2022/05/10 08:25:18;;;;;;;10.23;5.85;;;20.10;99.90;;;;;;5139121;27;20042;-51
2022/05/10 08:27:43;;;;;;;15.02;6.25;;;20.20;99.90;;;;;;5132253;27;20133;-53
2022/05/10 08:30:10;;;;;;;10.40;6.13;;;20.20;99.90;;;;;;5153007;27;20046;-50
2022/05/10 08:32:35;;;;;;;11.10;6.03;;;20.30;99.90;;;;;;5131758;27;20060;-51
2022/05/10 08:35:01;;;;;;;13.45;6.18;;;20.30;99.90;;;;;;5157480;27;20499;-50
2022/05/10 08:37:27;;;;;;;13.20;6.50;;;20.30;99.90;;;;;;5137307;27;20055;-55
2022/05/10 08:39:53;;;;;;;12.15;6.32;;;20.40;99.90;;;;;;5149742;27;20043;-56
2022/05/10 08:42:32;;;;;;;11.30;6.93;;;20.50;99.90;;;;;;5142973;27;20053;-51
2022/05/10 08:45:05;;;;;;;9.93;6.82;;;20.50;99.90;;;;;;5132303;27;20043;-54
2022/05/10 08:47:32;;;;;;;9.55;6.13;;;20.50;99.90;;;;;;5144637;27;20059;-54
2022/05/10 08:50:00;;;;;;;13.18;5.80;;;20.60;99.90;;;;;;5144922;27;20046;-53
2022/05/10 08:52:32;;;;;;;11.95;6.72;;;20.80;99.90;;;;;;5140678;27;20122;-50
2022/05/10 08:54:58;;;;;;;13.02;6.95;;;20.80;99.90;;;;;;5148638;27;20046;-53
2022/05/10 08:57:26;;;;;;;11.85;6.50;;;20.90;99.90;;;;;;5146340;27;20043;-51
2022/05/10 09:00:28;;;;;;;11.35;7.97;;;20.90;99.90;;;;;;5133163;27;20457;-56
2022/05/10 09:02:58;;;;;;;11.85;6.20;;;21.00;99.90;;;;;;5040984;28;20597;-54
2022/05/10 09:05:29;;;;;;;15.35;7.32;;;21.20;99.90;;;;;;5050853;28;20064;-53
2022/05/10 09:08:19;;;;;;;14.00;6.60;;;21.30;99.90;;;;;;5043701;28;20530;-54
2022/05/10 09:10:49;;;;;;;9.00;6.80;;;21.40;99.90;;;;;;5048451;28;20048;-55
2022/05/10 09:13:17;;;;;;;13.52;7.68;;;21.50;99.90;;;;;;5043042;28;20060;-53
2022/05/10 09:15:58;;;;;;;13.82;7.47;;;21.60;99.90;;;;;;5037989;28;20046;-54
2022/05/10 09:18:40;;;;;;;17.65;7.75;;;21.70;99.40;;;;;;5013410;28;20056;-54
2022/05/10 09:21:31;;;;;;;14.45;7.50;;;21.80;99.70;;;;;;5039216;28;20551;-48
2022/05/10 09:24:29;;;;;;;13.27;7.75;;;22.00;99.90;;;;;;5021364;28;20101;-55
2022/05/10 09:27:05;;;;;;;14.88;8.90;;;22.10;99.50;;;;;;5024357;28;20057;-54
2022/05/10 09:29:45;;;;;;;16.45;9.23;;;22.10;99.50;;;;;;5023656;28;20076;-56
2022/05/10 09:35:12;;;;;;;14.68;8.00;;;21.80;99.10;;;;;;5027694;28;20652;-54
2022/05/10 09:38:01;;;;;;;12.13;7.80;;;21.70;99.50;;;;;;5014650;28;20076;-54
2022/05/10 09:40:40;;;;;;;12.93;7.95;;;21.60;99.80;;;;;;5044647;28;20056;-47
2022/05/10 09:43:28;;;;;;;12.38;8.20;;;21.70;99.90;;;;;;5044972;28;20063;-53
2022/05/10 09:46:13;;;;;;;9.63;8.50;;;21.80;99.50;;;;;;5049070;28;20064;-51
2022/05/10 09:48:40;;;;;;;12.60;9.25;;;21.90;99.70;;;;;;5038343;28;20326;-52
2022/05/10 09:51:41;;;;;;;13.95;9.60;;;22.00;99.40;;;;;;5028456;28;20059;-53
2022/05/10 09:54:21;;;;;;;12.07;10.32;;;22.10;99.30;;;;;;5047752;28;20424;-53
2022/05/10 09:56:51;;;;;;;11.07;9.23;;;22.30;99.20;;;;;;5046446;28;20547;-53
2022/05/10 09:59:22;;;;;;;16.98;9.75;;;22.50;99.50;;;;;;5038084;28;20175;-50
2022/05/10 10:01:56;;;;;;;14.05;9.63;;;22.90;99.90;;;;;;5050621;28;20045;-53
2022/05/10 10:04:44;;;;;;;13.25;9.38;;;23.30;98.70;;;;;;5037717;28;20620;-51
2022/05/10 10:07:28;;;;;;;13.50;8.70;;;23.70;98.20;;;;;;5048739;28;20062;-55
2022/05/10 10:10:23;;;;;;;12.15;8.20;;;24.10;97.30;;;;;;5057618;28;20341;-54
2022/05/10 10:12:51;;;;;;;11.27;7.30;;;24.20;97.00;;;;;;5047171;28;20162;-54
2022/05/10 10:15:35;;;;;;;20.13;8.10;;;24.40;96.60;;;;;;5049930;28;20052;-52
2022/05/10 10:18:04;;;;;;;15.90;7.70;;;24.50;96.60;;;;;;5102352;27;20062;-55
2022/05/10 10:20:54;;;;;;;14.38;7.10;;;24.40;96.40;;;;;;5120375;27;20054;-54
2022/05/10 10:23:27;;;;;;;21.08;6.40;;;24.10;95.10;;;;;;5131259;27;20039;-56
2022/05/10 10:25:58;;;;;;;17.02;7.47;;;23.90;94.90;;;;;;5136605;27;20089;-50
2022/05/10 10:28:41;;;;;;;12.00;6.88;;;23.70;95.30;;;;;;5112079;27;20164;-54
2022/05/10 10:31:17;;;;;;;16.27;7.05;;;23.40;94.80;;;;;;5111540;27;20061;-48
2022/05/10 10:33:57;;;;;;;15.88;6.72;;;23.40;95.20;;;;;;5125527;27;20122;-54
2022/05/10 10:36:35;;;;;;;14.40;7.30;;;23.10;95.50;;;;;;5131576;27;20473;-51
2022/05/10 10:39:42;;;;;;;9.80;6.80;;;22.80;95.60;;;;;;5123216;27;20125;-54
2022/05/10 10:42:21;;;;;;;13.75;6.85;;;22.50;95.50;;;;;;5118871;27;20158;-54
2022/05/10 10:44:56;;;;;;;11.77;6.75;;;22.40;96.10;;;;;;5134699;27;20039;-52
2022/05/10 10:47:27;;;;;;;22.05;8.10;;;22.30;96.40;;;;;;5126556;27;20622;-50
2022/05/10 10:50:11;;;;;;;13.52;8.07;;;22.30;96.60;;;;;;5124192;27;20059;-53
2022/05/10 10:52:37;;;;;;;14.45;7.75;;;22.10;96.70;;;;;;5133709;27;20146;-54
2022/05/10 10:55:06;;;;;;;18.05;9.00;;;22.10;97.30;;;;;;5113937;27;20050;-50
2022/05/10 10:58:11;;;;;;;15.88;9.25;;;22.10;97.30;;;;;;5129554;27;20082;-54
2022/05/10 11:00:48;;;;;;;12.68;9.50;;;21.90;97.50;;;;;;5118316;27;20059;-54
2022/05/10 11:03:48;;;;;;;13.95;10.25;;;21.90;97.90;;;;;;5129597;27;20118;-52
2022/05/10 11:06:27;;;;;;;12.60;9.93;;;22.00;98.30;;;;;;5091714;28;20044;-51
2022/05/10 11:08:59;;;;;;;13.18;9.48;;;22.20;98.40;;;;;;5087008;28;20051;-51
2022/05/10 11:11:30;;;;;;;13.02;10.57;;;22.40;98.80;;;;;;5099802;28;20125;-55
2022/05/10 11:14:17;;;;;;;11.50;9.30;;;22.70;98.70;;;;;;5090700;28;20498;-48
2022/05/10 11:17:08;;;;;;;15.48;10.27;;;22.90;98.70;;;;;;5090499;28;20048;-53
2022/05/10 11:19:54;;;;;;;16.60;11.15;;;23.00;98.10;;;;;;5080808;28;20055;-50
2022/05/10 11:22:37;;;;;;;21.38;11.18;;;23.10;98.00;;;;;;5085116;28;20046;-53
2022/05/10 11:25:15;;;;;;;16.88;9.32;;;23.10;98.00;;;;;;5081511;28;20490;-49
2022/05/10 11:28:03;;;;;;;17.63;7.53;;;23.00;98.30;;;;;;5089915;28;20040;-48
2022/05/10 11:31:06;;;;;;;18.15;8.48;;;23.00;97.40;;;;;;5096289;28;20047;-53
2022/05/10 11:34:00;;;;;;;15.13;7.13;;;23.00;97.90;;;;;;5082415;28;20044;-53
2022/05/10 11:36:39;;;;;;;9.98;6.32;;;23.10;98.30;;;;;;5094247;28;20039;-55
2022/05/10 11:39:26;;;;;;;16.38;7.28;;;23.20;97.80;;;;;;5081047;28;20044;-52
2022/05/10 11:42:23;;;;;;;10.85;5.93;;;23.30;97.90;;;;;;5081739;28;20377;-53
2022/05/10 11:45:18;;;;;;;9.98;5.70;;;23.40;97.10;;;;;;5082292;28;20138;-55
2022/05/10 11:47:52;;;;;;;12.48;6.20;;;23.40;97.30;;;;;;5046468;28;20527;-54
2022/05/10 11:50:36;;;;;;;12.13;6.13;;;23.40;97.40;;;;;;5056362;28;20048;-52
2022/05/10 11:53:15;;;;;;;10.68;5.97;;;23.50;97.10;;;;;;5053767;28;20049;-52
2022/05/10 11:55:54;;;;;;;10.77;5.38;;;23.50;96.50;;;;;;5051497;28;20519;-54
2022/05/10 11:58:23;;;;;;;8.85;4.82;;;23.40;96.30;;;;;;5050613;28;20064;-53
2022/05/10 12:00:54;;;;;;;8.95;5.50;;;23.30;96.40;;;;;;5048066;28;20045;-53
2022/05/10 12:03:38;;;;;;;7.53;4.75;;;23.20;96.00;;;;;;5055056;28;20049;-52
2022/05/10 12:06:22;;;;;;;13.48;4.80;;;23.10;96.60;;;;;;5060897;28;20121;-51
2022/05/10 12:08:53;;;;;;;22.10;4.90;;;23.10;96.60;;;;;;5062055;28;20091;-58
2022/05/10 12:11:37;;;;;;;13.95;5.30;;;22.90;96.40;;;;;;5059734;28;20060;-56
2022/05/10 12:22:59;;;;;;;10.90;5.47;;;23.40;95.50;;;;;;5076575;28;20100;-53
2022/05/10 12:25:52;;;;;;;16.85;6.20;;;23.30;94.80;;;;;;5103374;28;20094;-47
2022/05/10 12:28:36;;;;;;;;;;;23.10;95.00;;;;;;5114547;28;20531;-54
2022/05/10 12:31:30;;;;;;;10.50;5.43;;;23.20;95.40;;;;;;5104824;28;19978;-54
2022/05/10 12:34:12;;;;;;;12.30;5.78;;;23.10;95.00;;;;;;5100039;28;20058;-49
2022/05/10 12:36:47;;;;;;;18.70;5.38;;;23.00;94.80;;;;;;5111635;28;20043;-52
2022/05/10 12:39:26;;;;;;;13.82;4.57;;;22.90;95.20;;;;;;5101617;28;20445;-52
2022/05/10 12:42:06;;;;;;;9.43;3.55;;;23.00;95.40;;;;;;5109634;27;20051;-54
2022/05/10 12:45:11;;;;;;;7.90;3.97;;;22.80;94.10;;;;;;5105060;28;20051;-54
2022/05/10 12:48:05;;;;;;;7.93;3.90;;;22.60;93.80;;;;;;5061916;28;20594;-52
2022/05/10 12:50:49;;;;;;;11.73;3.30;;;22.50;93.40;;;;;;5061926;28;20052;-54
2022/05/10 12:53:41;;;;;;;11.05;3.38;;;22.40;93.40;;;;;;5065801;28;20065;-50
2022/05/10 12:56:29;;;;;;;6.20;2.80;;;22.20;92.90;;;;;;4998876;28;20065;-52
2022/05/10 12:59:01;;;;;;;5.63;2.58;;;22.20;92.90;;;;;;4983521;28;20145;-54
2022/05/10 13:01:34;;;;;;;5.50;2.10;;;22.00;91.70;;;;;;4999745;28;20125;-51
2022/05/10 13:04:21;;;;;;;5.70;2.03;;;22.00;91.80;;;;;;5000246;28;20053;-54
2022/05/10 13:06:58;;;;;;;5.97;1.85;;;21.90;90.40;;;;;;4999232;28;20484;-46
2022/05/10 13:09:29;;;;;;;10.70;2.67;;;21.80;89.60;;;;;;4983085;28;20050;-54
2022/05/10 13:12:37;;;;;;;6.13;1.70;;;21.80;89.20;;;;;;4998691;28;21389;-55
2022/05/10 13:15:15;;;;;;;7.05;1.50;;;21.70;87.50;;;;;;4986408;28;20496;-53
2022/05/10 13:17:47;;;;;;;5.55;1.00;;;21.80;86.30;;;;;;4999991;28;20069;-55
2022/05/10 13:20:15;;;;;;;4.88;1.38;;;21.80;85.30;;;;;;4999920;28;20555;-49
2022/05/10 13:23:04;;;;;;;5.75;1.60;;;21.80;85.90;;;;;;4983178;28;20062;-54